Time;durP1;ratioP1;P1;durP2;ratioP2;P2;SDS_P1;SDS_P2;PMS_P1;PMS_P2;Temp;Humidity;BMP_temperature;BMP_pressure;BME280_temperature;BME280_humidity;BME280_pressure;Samples;Min_cycle;Max_cycle;Signal;HPM_P1;HPM_P2
2021/01/07 00:02:24;;;;;;;;;;;;;;;25.75;38.16;100395.84;5093525;28;1201;-47
2021/01/07 00:04:49;;;;;;;;;;;;;;;25.78;37.78;100404.47;5058024;28;1314;-50
2021/01/07 00:07:15;;;;;;;;;;;;;;;25.77;38.16;100402.84;5087163;28;1363;-47
2021/01/07 00:09:40;;;;;;;;;;;;;;;25.77;38.32;100400.97;5088666;28;1092;-50
2021/01/07 00:12:05;;;;;;;;;;;;;;;25.76;38.52;100402.00;5085615;28;1893;-46
2021/01/07 00:14:30;;;;;;;;;;;;;;;25.80;38.55;100399.69;5093514;28;1172;-49
2021/01/07 00:16:55;;;;;;;;;;;;;;;25.80;38.30;100411.25;5092108;28;1311;-51
2021/01/07 00:19:21;;;;;;;;;;;;;;;25.82;38.11;100414.50;5088783;28;1108;-49
2021/01/07 00:21:46;;;;;;;;;;;;;;;25.78;39.44;100407.16;5089568;28;1142;-45
2021/01/07 00:24:11;;;;;;;;;;;;;;;25.80;38.16;100413.91;5084406;28;1089;-47
2021/01/07 00:26:36;;;;;;;;;;;;;;;25.83;37.80;100415.34;5088889;28;1384;-46
2021/01/07 00:29:02;;;;;;;;;;;;;;;25.83;38.11;100410.78;5092069;28;1084;-46
2021/01/07 00:31:28;;;;;;;;;;;;;;;25.86;37.95;100412.19;5090126;28;1890;-45
2021/01/07 00:33:53;;;;;;;;;;;;;;;25.83;38.54;100413.44;5084794;28;998;-50
2021/01/07 00:36:18;;;;;;;;;;;;;;;25.85;37.88;100416.72;5091033;28;1295;-46
2021/01/07 00:38:44;;;;;;;;;;;;;;;25.87;38.19;100413.81;5084848;28;1139;-51
2021/01/07 00:41:09;;;;;;;;;;;;;;;25.85;38.34;100416.72;5085981;28;1105;-46
2021/01/07 00:43:35;;;;;;;;;;;;;;;25.88;37.99;100415.47;5087719;28;1139;-47
2021/01/07 00:46:00;;;;;;;;;;;;;;;25.88;38.07;100415.47;5084274;28;1296;-51
2021/01/07 00:48:25;;;;;;;;;;;;;;;25.88;38.03;100415.47;5088077;28;1132;-47
2021/01/07 00:50:50;;;;;;;;;;;;;;;25.86;38.24;100414.88;5081298;28;1898;-54
2021/01/07 00:53:15;;;;;;;;;;;;;;;25.91;38.35;100417.69;5087117;28;1092;-48
2021/01/07 00:55:41;;;;;;;;;;;;;;;25.91;38.16;100415.00;5087626;28;1291;-47
2021/01/07 00:58:09;;;;;;;;;;;;;;;25.90;37.87;100413.34;5085356;28;1133;-46
2021/01/07 01:00:34;;;;;;;;;;;;;;;25.89;38.13;100417.91;5080178;28;904;-44
2021/01/07 01:02:59;;;;;;;;;;;;;;;25.92;38.04;100419.31;5089034;28;1093;-46
2021/01/07 01:05:24;;;;;;;;;;;;;;;25.93;38.16;100412.91;5092914;28;1159;-46
2021/01/07 01:07:50;;;;;;;;;;;;;;;25.89;38.11;100415.22;5085222;28;1165;-48
2021/01/07 01:10:15;;;;;;;;;;;;;;;25.89;38.46;100411.72;5091243;28;1134;-46
2021/01/07 01:12:40;;;;;;;;;;;;;;;25.88;38.46;100413.56;5084300;28;1952;-47
2021/01/07 01:15:07;;;;;;;;;;;;;;;25.91;38.10;100415.00;5090581;28;1061;-45
2021/01/07 01:17:33;;;;;;;;;;;;;;;25.92;38.15;100413.13;5089717;28;1229;-48
2021/01/07 01:19:58;;;;;;;;;;;;;;;25.84;38.12;100409.72;5085683;28;1018;-49
2021/01/07 01:22:23;;;;;;;;;;;;;;;25.76;38.39;100415.44;5090452;28;1151;-49
2021/01/07 01:24:48;;;;;;;;;;;;;;;25.82;38.54;100416.38;5084838;28;1022;-51
2021/01/07 01:27:13;;;;;;;;;;;;;;;25.71;38.60;100413.47;5091478;28;1207;-49
2021/01/07 01:29:38;;;;;;;;;;;;;;;25.71;38.21;100407.25;5090425;28;1057;-50
2021/01/07 01:32:04;;;;;;;;;;;;;;;25.82;38.21;100419.88;5084463;28;1898;-45
2021/01/07 01:34:29;;;;;;;;;;;;;;;25.94;38.12;100421.75;5074727;28;1463;-48
2021/01/07 01:36:54;;;;;;;;;;;;;;;25.94;37.77;100429.81;5062060;28;1448;-46
2021/01/07 01:39:19;;;;;;;;;;;;;;;25.92;37.88;100434.59;5054655;28;1118;-48
2021/01/07 01:41:47;;;;;;;;;;;;;;;25.89;37.93;100422.47;5055273;28;1240;-47
2021/01/07 01:44:16;;;;;;;;;;;;;;;25.86;38.01;100420.25;5058257;28;1681;-50
2021/01/07 01:46:41;;;;;;;;;;;;;;;25.86;38.39;100420.25;5054110;28;1509;-50
2021/01/07 01:49:07;;;;;;;;;;;;;;;25.82;37.73;100425.25;5063344;28;1466;-47
2021/01/07 01:51:33;;;;;;;;;;;;;;;25.73;37.74;100427.47;5057800;28;1962;-46
2021/01/07 01:53:59;;;;;;;;;;;;;;;25.66;37.92;100429.44;5058704;28;1435;-46
2021/01/07 01:56:24;;;;;;;;;;;;;;;25.62;38.14;100422.06;5070749;28;1290;-51
2021/01/07 01:58:50;;;;;;;;;;;;;;;25.59;38.32;100420.69;5059655;28;1182;-52
2021/01/07 02:01:15;;;;;;;;;;;;;;;25.53;38.10;100419.72;5064392;28;1659;-47
2021/01/07 02:03:41;;;;;;;;;;;;;;;25.50;38.18;100422.88;5056904;28;1043;-49
2021/01/07 02:06:08;;;;;;;;;;;;;;;25.48;38.57;100424.16;5056808;28;1453;-45
2021/01/07 02:08:34;;;;;;;;;;;;;;;25.43;38.19;100425.63;5059098;28;1411;-46
2021/01/07 02:11:00;;;;;;;;;;;;;;;25.43;38.39;100424.81;5065792;28;1906;-47
2021/01/07 02:13:26;;;;;;;;;;;;;;;25.36;38.54;100419.53;5068165;28;1172;-45
2021/01/07 02:15:51;;;;;;;;;;;;;;;-147.09;38.63;100424.06;5080175;28;1295;-46
2021/01/07 02:18:16;;;;;;;;;;;;;;;25.31;38.45;100416.72;5082670;28;1223;-49
2021/01/07 02:20:41;;;;;;;;;;;;;;;25.30;38.39;100420.47;5056264;28;1161;-48
2021/01/07 02:23:07;;;;;;;;;;;;;;;25.25;38.61;100414.97;5087109;28;1080;-46
2021/01/07 02:25:32;;;;;;;;;;;;;;;25.23;38.54;100409.81;5083541;28;1101;-49
2021/01/07 02:27:57;;;;;;;;;;;;;;;25.21;38.85;100411.09;5070735;28;1330;-44
2021/01/07 02:30:22;;;;;;;;;;;;;;;25.20;38.66;100420.19;5088665;28;1886;-46
2021/01/07 02:32:48;;;;;;;;;;;;;;;25.19;38.34;100413.19;5087649;28;1021;-46
2021/01/07 02:35:13;;;;;;;;;;;;;;;25.15;38.83;100416.31;5083590;28;1097;-46
2021/01/07 02:37:41;;;;;;;;;;;;;;;25.13;38.53;100415.72;5085842;28;1291;-47
2021/01/07 02:40:06;;;;;;;;;;;;;;;25.13;38.61;100418.38;5075849;28;1037;-46
2021/01/07 02:42:32;;;;;;;;;;;;;;;25.10;38.67;100420.72;5088727;28;1124;-45
2021/01/07 02:44:57;;;;;;;;;;;;;;;25.10;38.82;100410.00;5085646;28;1068;-50
2021/01/07 02:47:22;;;;;;;;;;;;;;;25.09;38.67;100411.03;5082777;28;1152;-44
2021/01/07 02:49:48;;;;;;;;;;;;;;;25.07;38.80;100405.09;5084838;28;1081;-46
2021/01/07 02:52:13;;;;;;;;;;;;;;;25.04;38.59;100409.03;5087730;28;1897;-46
2021/01/07 02:54:38;;;;;;;;;;;;;;;25.04;38.55;100398.31;5088102;28;1049;-45
2021/01/07 02:57:03;;;;;;;;;;;;;;;25.02;38.76;100400.38;5084637;28;1288;-46
2021/01/07 02:59:28;;;;;;;;;;;;;;;25.00;38.79;100397.94;5073626;28;1472;-48
2021/01/07 03:01:54;;;;;;;;;;;;;;;25.00;38.82;100397.94;5069153;28;1027;-44
2021/01/07 03:04:19;;;;;;;;;;;;;;;24.97;38.80;100402.94;5081728;28;1152;-45
2021/01/07 03:06:45;;;;;;;;;;;;;;;24.93;38.89;100405.25;5073493;28;1340;-45
2021/01/07 03:09:10;;;;;;;;;;;;;;;24.93;38.88;100399.91;5082031;28;1149;-46
2021/01/07 03:11:35;;;;;;;;;;;;;;;24.92;39.12;100402.78;5085374;28;1926;-46
2021/01/07 03:14:00;;;;;;;;;;;;;;;24.93;38.81;100412.47;5088818;28;1076;-45
2021/01/07 03:16:26;;;;;;;;;;;;;;;24.89;38.72;100401.41;5088782;28;1387;-47
2021/01/07 03:18:51;;;;;;;;;;;;;;;24.86;38.73;100399.97;5083666;28;1052;-50
2021/01/07 03:21:16;;;;;;;;;;;;;;;24.86;38.70;100399.97;5078279;28;1232;-48
2021/01/07 03:23:41;;;;;;;;;;;;;;;24.84;39.02;100399.38;5086281;28;1035;-49
2021/01/07 03:26:06;;;;;;;;;;;;;;;24.83;38.78;100400.44;5081332;28;1323;-45
2021/01/07 03:28:31;;;;;;;;;;;;;;;24.82;38.24;100395.31;5089039;28;1219;-50
2021/01/07 03:30:56;;;;;;;;;;;;;;;24.81;38.62;100396.34;5089149;28;1910;-45
2021/01/07 03:33:22;;;;;;;;;;;;;;;24.81;38.35;100391.78;5082824;28;1156;-49
2021/01/07 03:35:47;;;;;;;;;;;;;;;24.80;38.55;100390.16;5086477;28;1299;-46
2021/01/07 03:38:12;;;;;;;;;;;;;;;24.79;38.44;100391.19;5081610;28;1101;-53
2021/01/07 03:40:37;;;;;;;;;;;;;;;24.81;38.50;100391.78;5078428;28;1023;-50
2021/01/07 03:43:02;;;;;;;;;;;;;;;24.81;38.74;100399.03;5088374;28;1017;-50
2021/01/07 03:45:27;;;;;;;;;;;;;;;24.82;38.53;100390.75;5080628;28;1132;-43
2021/01/07 03:47:54;;;;;;;;;;;;;;;24.80;38.32;100392.03;5085774;28;1203;-53
2021/01/07 03:50:19;;;;;;;;;;;;;;;24.77;38.50;100389.81;5081908;28;1093;-47
2021/01/07 03:52:44;;;;;;;;;;;;;;;24.73;38.65;100390.25;5089710;28;1894;-45
2021/01/07 03:55:09;;;;;;;;;;;;;;;24.71;38.88;100389.63;5079420;28;1676;-47
2021/01/07 03:57:34;;;;;;;;;;;;;;;24.75;38.79;100394.56;5080519;28;1264;-45
2021/01/07 04:00:00;;;;;;;;;;;;;;;24.74;38.68;100393.75;5083108;28;1076;-49
2021/01/07 04:02:25;;;;;;;;;;;;;;;24.72;38.42;100383.22;5089241;28;1120;-47
2021/01/07 04:04:50;;;;;;;;;;;;;;;24.74;38.74;100393.75;5081761;28;1148;-45
2021/01/07 04:07:15;;;;;;;;;;;;;;;24.72;38.55;100387.75;5088868;28;1282;-47
2021/01/07 04:09:40;;;;;;;;;;;;;;;24.71;38.42;100388.78;5073746;28;1151;-45
2021/01/07 04:12:06;;;;;;;;;;;;;;;24.68;38.61;100394.59;5074178;28;1902;-44
2021/01/07 04:14:31;;;;;;;;;;;;;;;24.67;38.51;100396.47;5088403;28;1187;-45
2021/01/07 04:16:56;;;;;;;;;;;;;;;24.66;38.51;100394.84;5081133;28;1262;-45
2021/01/07 04:19:21;;;;;;;;;;;;;;;24.66;38.73;100391.34;5088660;28;1053;-45
2021/01/07 04:21:46;;;;;;;;;;;;;;;24.66;38.82;100399.38;5085263;28;1120;-44
2021/01/07 04:24:15;;;;;;;;;;;;;;;24.65;38.44;100395.91;5084616;28;1121;-47
2021/01/07 04:26:43;;;;;;;;;;;;;;;24.66;38.91;100385.97;5085631;28;1298;-45
2021/01/07 04:29:09;;;;;;;;;;;;;;;24.67;38.50;100401.00;5082564;28;1007;-46
2021/01/07 04:31:34;;;;;;;;;;;;;;;24.65;38.80;100395.91;5088168;28;1901;-48
2021/01/07 04:34:00;;;;;;;;;;;;;;;24.67;38.76;100395.66;5084389;28;1014;-47
2021/01/07 04:36:25;;;;;;;;;;;;;;;24.65;38.74;100395.91;5083945;28;1359;-44
2021/01/07 04:38:50;;;;;;;;;;;;;;;24.63;38.77;100389.94;5083085;28;1199;-46
2021/01/07 04:41:15;;;;;;;;;;;;;;;24.62;38.70;100392.81;5092263;28;1033;-47
2021/01/07 04:43:40;;;;;;;;;;;;;;;24.58;38.63;100393.28;5092835;28;1069;-45
2021/01/07 04:46:05;;;;;;;;;;;;;;;24.61;38.63;100393.88;5088201;28;1289;-45
2021/01/07 04:48:32;;;;;;;;;;;;;;;24.59;38.46;100392.22;5086575;28;1164;-47
2021/01/07 04:50:57;;;;;;;;;;;;;;;24.59;38.58;100386.88;5085426;28;1957;-46
2021/01/07 04:53:23;;;;;;;;;;;;;;;24.59;38.46;100389.56;5091892;28;1081;-49
2021/01/07 04:55:48;;;;;;;;;;;;;;;24.61;38.55;100381.31;5089799;28;1394;-46
2021/01/07 04:58:13;;;;;;;;;;;;;;;24.61;38.62;100378.63;5088217;28;1049;-50
2021/01/07 05:00:39;;;;;;;;;;;;;;;24.61;38.72;100380.47;5089627;28;1085;-46
2021/01/07 05:03:04;;;;;;;;;;;;;;;24.61;38.58;100388.50;5084369;28;1049;-45
2021/01/07 05:05:33;;;;;;;;;;;;;;;24.58;38.72;100382.56;5091914;28;1084;-47
2021/01/07 05:08:01;;;;;;;;;;;;;;;24.59;38.34;100380.72;5089031;28;1247;-46
2021/01/07 05:10:26;;;;;;;;;;;;;;;24.57;38.32;100385.47;5088340;28;1152;-45
2021/01/07 05:12:52;;;;;;;;;;;;;;;24.58;38.46;100387.91;5086698;28;1902;-49
2021/01/07 05:15:17;;;;;;;;;;;;;;;24.57;38.32;100380.13;5084384;28;1171;-46
2021/01/07 05:17:42;;;;;;;;;;;;;;;24.58;38.17;100381.75;5087283;28;1227;-46
2021/01/07 05:20:08;;;;;;;;;;;;;;;24.57;38.21;100380.13;5076732;28;1029;-46
2021/01/07 05:22:42;;;;;;;;;;;;;;;24.57;38.20;100380.13;5080813;28;1050;-46
2021/01/07 05:25:14;;;;;;;;;;;;;;;24.56;38.26;100383.84;5089314;28;1068;-45
2021/01/07 05:27:40;;;;;;;;;;;;;;;24.56;38.14;100379.28;5088670;28;1185;-45
2021/01/07 05:30:06;;;;;;;;;;;;;;;24.57;38.10;100372.88;5085470;28;1045;-45
2021/01/07 05:32:39;;;;;;;;;;;;;;;24.56;38.52;100379.28;5080488;28;1898;-45
2021/01/07 05:35:08;;;;;;;;;;;;;;;24.56;38.21;100373.94;5088496;28;1030;-44
2021/01/07 05:37:34;;;;;;;;;;;;;;;24.54;38.30;100365.28;5059524;28;1997;-45
2021/01/07 05:39:59;;;;;;;;;;;;;;;24.56;38.10;100373.13;5060856;28;1475;-48
2021/01/07 05:42:25;;;;;;;;;;;;;;;24.57;38.27;100364.03;5075288;28;1215;-46
2021/01/07 05:44:51;;;;;;;;;;;;;;;24.57;38.06;100362.16;5073371;28;1177;-45
2021/01/07 05:47:29;;;;;;;;;;;;;;;24.56;38.03;100368.56;5069725;28;1468;-47
2021/01/07 05:49:57;;;;;;;;;;;;;;;24.56;38.01;100373.13;5074003;28;1167;-48
2021/01/07 05:52:22;;;;;;;;;;;;;;;24.55;38.33;100368.81;5074907;28;2013;-46
2021/01/07 05:54:48;;;;;;;;;;;;;;;24.56;37.86;100373.13;5077010;28;1124;-44
2021/01/07 05:57:14;;;;;;;;;;;;;;;24.52;38.35;100367.38;5082221;28;1296;-44
2021/01/07 05:59:40;;;;;;;;;;;;;;;24.55;38.09;100364.25;5087240;28;1109;-46
2021/01/07 06:02:08;;;;;;;;;;;;;;;24.54;38.13;100369.84;5082414;28;1010;-44
2021/01/07 06:04:33;;;;;;;;;;;;;;;24.51;38.18;100368.41;5075271;28;952;-45
2021/01/07 06:06:59;;;;;;;;;;;;;;;24.54;37.96;100369.84;5084834;28;1267;-45
2021/01/07 06:09:27;;;;;;;;;;;;;;;24.52;37.92;100371.94;5087003;28;1156;-48
2021/01/07 06:11:53;;;;;;;;;;;;;;;24.49;37.96;100375.88;5088759;28;1893;-49
2021/01/07 06:14:18;;;;;;;;;;;;;;;24.50;38.20;100374.81;5085018;28;1133;-49
2021/01/07 06:16:43;;;;;;;;;;;;;;;24.47;37.88;100367.22;5086390;28;1271;-45
2021/01/07 06:19:27;;;;;;;;;;;;;;;24.48;37.73;100378.78;5091146;28;1037;-48
2021/01/07 06:21:54;;;;;;;;;;;;;;;24.48;37.69;100371.53;5079659;28;1003;-48
2021/01/07 06:24:20;;;;;;;;;;;;;;;24.48;38.07;100376.91;5088935;28;1108;-49
2021/01/07 06:26:45;;;;;;;;;;;;;;;24.49;37.81;100378.53;5086670;28;1243;-46
2021/01/07 06:29:11;;;;;;;;;;;;;;;24.49;37.95;100373.19;5092937;28;1096;-47
2021/01/07 06:31:37;;;;;;;;;;;;;;;24.50;38.20;100374.03;5086233;28;1901;-48
2021/01/07 06:34:03;;;;;;;;;;;;;;;24.48;37.85;100374.22;5081428;28;1363;-44
2021/01/07 06:36:38;;;;;;;;;;;;;;;24.48;38.02;100376.91;5086090;28;1325;-45
2021/01/07 06:39:04;;;;;;;;;;;;;;;24.48;37.94;100376.91;5080717;28;1065;-47
2021/01/07 06:41:29;;;;;;;;;;;;;;;24.48;38.02;100379.59;5071376;28;1754;-48
2021/01/07 06:43:55;;;;;;;;;;;;;;;24.47;38.02;100374.47;5073165;28;1026;-45
2021/01/07 06:46:55;;;;;;;;;;;;;;;24.49;37.94;100375.06;5079488;28;1268;-44
2021/01/07 06:49:24;;;;;;;;;;;;;;;24.48;37.75;100378.78;4995101;28;1456;-44
2021/01/07 06:52:03;;;;;;;;;;;;;;;24.47;38.19;100369.91;5071868;28;1901;-47
2021/01/07 06:54:36;;;;;;;;;;;;;;;24.47;37.95;100369.09;5085487;28;1136;-44
2021/01/07 06:57:05;;;;;;;;;;;;;;;24.48;37.86;100370.75;5074018;28;1271;-48
2021/01/07 06:59:31;;;;;;;;;;;;;;;24.48;37.80;100374.22;5082792;28;1099;-47
2021/01/07 07:01:57;;;;;;;;;;;;;;;24.50;37.89;100382.06;5076839;28;1014;-49
2021/01/07 07:04:24;;;;;;;;;;;;;;;24.47;37.82;100374.47;5074401;28;1242;-50
2021/01/07 07:06:55;;;;;;;;;;;;;;;24.47;37.75;100379.81;5075594;28;1338;-50
2021/01/07 07:09:23;;;;;;;;;;;;;;;24.46;37.68;100375.50;5082862;28;1073;-48
2021/01/07 07:11:55;;;;;;;;;;;;;;;24.48;37.82;100381.47;5088244;28;1945;-43
2021/01/07 07:14:21;;;;;;;;;;;;;;;24.48;37.83;100376.91;5081477;28;1160;-44
2021/01/07 07:16:47;;;;;;;;;;;;;;;24.48;37.54;100376.09;5061141;28;1514;-48
2021/01/07 07:19:23;;;;;;;;;;;;;;;24.44;37.52;100384.59;5068414;28;1018;-45
2021/01/07 07:22:02;;;;;;;;;;;;;;;24.46;37.56;100394.25;5065502;28;1244;-44
2021/01/07 07:24:32;;;;;;;;;;;;;;;24.43;37.69;100384.78;5070283;28;1212;-46
2021/01/07 07:27:04;;;;;;;;;;;;;;;24.43;37.88;100387.47;5052696;28;1528;-44
2021/01/07 07:29:32;;;;;;;;;;;;;;;24.43;37.15;100390.16;5067504;28;940;-48
2021/01/07 07:31:57;;;;;;;;;;;;;;;24.44;37.84;100391.78;5070717;28;1902;-51
2021/01/07 07:34:30;;;;;;;;;;;;;;;24.53;37.93;100393.13;5079994;28;1088;-43
2021/01/07 07:36:56;;;;;;;;;;;;;;;24.48;37.93;100398.34;5056032;28;1454;-48
2021/01/07 07:39:24;;;;;;;;;;;;;;;24.46;38.21;100400.44;5058069;28;1105;-50
2021/01/07 07:42:03;;;;;;;;;;;;;;;24.49;37.79;100393.81;5068185;28;1197;-48
2021/01/07 07:44:28;;;;;;;;;;;;;;;24.47;36.76;100395.91;5084367;28;1189;-55
2021/01/07 07:46:54;;;;;;;;;;;;;;;24.53;37.80;100403.03;5083215;28;1301;-51
2021/01/07 07:49:23;;;;;;;;;;;;;;;24.55;37.76;100403.63;5077225;28;1188;-48
2021/01/07 07:51:50;;;;;;;;;;;;;;;24.52;37.48;100404.09;5076038;28;1950;-49
2021/01/07 07:54:16;;;;;;;;;;;;;;;24.45;37.62;100406.81;5079487;28;1398;-51
2021/01/07 07:56:41;;;;;;;;;;;;;;;24.45;37.75;100404.16;5057465;28;1245;-50
2021/01/07 07:59:07;;;;;;;;;;;;;;;24.43;37.84;100400.88;5078971;28;1330;-51
2021/01/07 08:01:35;;;;;;;;;;;;;;;24.46;37.77;100411.16;5087901;28;1092;-52
2021/01/07 08:04:01;;;;;;;;;;;;;;;24.42;38.45;100401.91;5084317;28;1088;-48
2021/01/07 08:06:26;;;;;;;;;;;;;;;24.44;38.09;100410.56;5082249;28;1252;-48
2021/01/07 08:09:00;;;;;;;;;;;;;;;24.44;38.13;100413.22;5083419;28;1089;-50
2021/01/07 08:11:29;;;;;;;;;;;;;;;24.41;38.15;100411.00;5088016;28;1889;-51
2021/01/07 08:13:54;;;;;;;;;;;;;;;24.41;38.31;100413.69;5083237;28;1232;-54
2021/01/07 08:16:20;;;;;;;;;;;;;;;24.42;38.46;100413.47;5088401;28;1287;-48
2021/01/07 08:18:45;;;;;;;;;;;;;;;24.43;38.51;100425.00;5072067;28;1097;-52
2021/01/07 08:21:10;;;;;;;;;;;;;;;24.43;38.14;100412.44;5086764;28;1037;-49
2021/01/07 08:23:35;;;;;;;;;;;;;;;24.48;38.36;100414.41;5090457;28;1025;-51
2021/01/07 08:26:02;;;;;;;;;;;;;;;24.49;37.88;100420.63;5088730;28;1310;-49
2021/01/07 08:28:30;;;;;;;;;;;;;;;24.50;38.36;100425.72;5088136;28;1088;-48
2021/01/07 08:30:57;;;;;;;;;;;;;;;24.47;38.78;100420.81;5078887;28;1964;-47
2021/01/07 08:33:23;;;;;;;;;;;;;;;24.49;37.92;100424.09;5085689;28;1101;-49
2021/01/07 08:35:48;;;;;;;;;;;;;;;24.45;37.11;100425.59;5087459;28;1275;-49
2021/01/07 08:38:27;;;;;;;;;;;;;;;24.42;36.52;100434.91;5090613;28;1440;-47
2021/01/07 08:40:54;;;;;;;;;;;;;;;24.42;36.91;100426.03;5086269;28;1034;-48
2021/01/07 08:43:19;;;;;;;;;;;;;;;24.45;37.18;100436.31;5092776;28;1155;-47
2021/01/07 08:45:44;;;;;;;;;;;;;;;24.44;37.35;100440.03;5083248;28;1393;-48
2021/01/07 08:48:10;;;;;;;;;;;;;;;24.47;37.68;100433.41;5089765;28;1113;-48
2021/01/07 08:50:35;;;;;;;;;;;;;;;24.49;37.18;100436.69;5091267;28;1029;-52
2021/01/07 08:53:05;;;;;;;;;;;;;;;24.53;37.22;100430.66;5087988;28;1882;-51
2021/01/07 08:55:49;;;;;;;;;;;;;;;24.51;37.92;100432.72;5089837;28;1081;-49
2021/01/07 08:58:21;;;;;;;;;;;;;;;24.48;38.07;100435.84;5084689;28;1034;-55
2021/01/07 09:00:50;;;;;;;;;;;;;;;24.47;38.28;100438.78;5092589;28;1041;-49
2021/01/07 09:03:15;;;;;;;;;;;;;;;24.46;38.24;100434.47;5067326;28;1149;-48
2021/01/07 09:05:40;;;;;;;;;;;;;;;24.45;38.51;100433.63;5092131;28;1074;-50
2021/01/07 09:08:06;;;;;;;;;;;;;;;24.47;38.21;100439.56;5089419;28;1291;-48
2021/01/07 09:10:31;;;;;;;;;;;;;;;24.48;38.24;100435.84;5088155;28;1085;-48
2021/01/07 09:12:56;;;;;;;;;;;;;;;24.50;38.33;100436.44;5099754;28;1894;-47
2021/01/07 09:15:25;;;;;;;;;;;;;;;24.48;37.68;100430.50;5098065;28;1026;-45
2021/01/07 09:17:52;;;;;;;;;;;;;;;24.49;38.10;100424.09;5082301;28;1224;-47
2021/01/07 09:20:21;;;;;;;;;;;;;;;24.47;38.40;100431.53;5099681;28;1191;-46
2021/01/07 09:22:47;;;;;;;;;;;;;;;24.47;38.24;100433.41;5096344;28;1064;-45
2021/01/07 09:25:17;;;;;;;;;;;;;;;24.48;38.08;100433.19;5097039;28;1014;-45
2021/01/07 09:27:42;;;;;;;;;;;;;;;24.48;38.00;100433.19;5103126;28;1213;-46
2021/01/07 09:30:08;;;;;;;;;;;;;;;24.51;38.07;100435.41;5101260;28;1172;-48
2021/01/07 09:32:33;;;;;;;;;;;;;;;24.48;38.19;100425.13;5087201;28;1898;-45
2021/01/07 09:34:58;;;;;;;;;;;;;;;24.48;38.15;100435.06;5095863;28;1236;-46
2021/01/07 09:37:24;;;;;;;;;;;;;;;24.48;38.26;100430.50;5097318;28;1309;-52
2021/01/07 09:39:50;;;;;;;;;;;;;;;24.50;38.17;100430.28;5087336;28;954;-45
2021/01/07 09:42:16;;;;;;;;;;;;;;;24.49;38.06;100442.84;5093390;28;1132;-47
2021/01/07 09:44:42;;;;;;;;;;;;;;;24.50;38.35;100433.78;5080405;28;1092;-47
2021/01/07 09:47:07;;;;;;;;;;;;;;;24.47;38.13;100436.91;5097527;28;1299;-46
2021/01/07 09:49:33;;;;;;;;;;;;;;;24.49;38.32;100439.38;5095168;28;1049;-46
2021/01/07 09:51:59;;;;;;;;;;;;;;;24.49;38.25;100442.06;5098213;28;1893;-49
2021/01/07 09:54:24;;;;;;;;;;;;;;;24.49;38.31;100442.06;5099181;28;1175;-46
2021/01/07 09:56:51;;;;;;;;;;;;;;;24.47;38.22;100442.25;5076783;28;1400;-46
2021/01/07 09:59:16;;;;;;;;;;;;;;;24.48;37.91;100446.56;5082055;28;1007;-46
2021/01/07 10:01:41;;;;;;;;;;;;;;;24.50;38.36;100443.69;5100308;28;1080;-47
2021/01/07 10:04:07;;;;;;;;;;;;;;;24.48;38.24;100441.22;5094298;28;1239;-51
2021/01/07 10:06:32;;;;;;;;;;;;;;;24.46;38.12;100432.59;5091915;28;1314;-48
2021/01/07 10:08:57;;;;;;;;;;;;;;;24.48;38.24;100433.19;5089538;28;1069;-48
2021/01/07 10:11:22;;;;;;;;;;;;;;;24.47;38.57;100425.38;5086654;28;1901;-50
2021/01/07 10:13:47;;;;;;;;;;;;;;;24.47;38.66;100422.69;5087691;28;1084;-50
2021/01/07 10:16:14;;;;;;;;;;;;;;;24.47;38.49;100423.50;5082848;28;1290;-48
2021/01/07 10:18:39;;;;;;;;;;;;;;;24.46;38.50;100415.69;5091325;28;1036;-48
2021/01/07 10:21:06;;;;;;;;;;;;;;;24.46;38.27;100416.50;5087743;28;1072;-49
2021/01/07 10:23:32;;;;;;;;;;;;;;;24.46;38.49;100408.47;5067153;28;1077;-49
2021/01/07 10:25:57;;;;;;;;;;;;;;;24.46;38.18;100416.50;5067940;28;1295;-50
2021/01/07 10:28:29;;;;;;;;;;;;;;;24.47;38.36;100412.78;5091022;28;1137;-48
2021/01/07 10:30:54;;;;;;;;;;;;;;;24.46;38.24;100405.78;5089923;28;1910;-49
2021/01/07 10:33:20;;;;;;;;;;;;;;;24.45;38.34;100409.50;5083292;28;1096;-48
2021/01/07 10:35:46;;;;;;;;;;;;;;;24.43;38.38;100411.59;5085894;28;1341;-51
2021/01/07 10:38:11;;;;;;;;;;;;;;;24.44;38.37;100400.66;5082462;28;1077;-49
2021/01/07 10:40:42;;;;;;;;;;;;;;;24.46;38.41;100408.47;5078686;28;1049;-50
2021/01/07 10:43:08;;;;;;;;;;;;;;;24.47;38.13;100398.59;5088280;28;1136;-51
2021/01/07 10:45:33;;;;;;;;;;;;;;;24.48;38.24;100398.34;5086293;28;1022;-50
2021/01/07 10:47:59;;;;;;;;;;;;;;;24.49;38.42;100394.63;5085852;28;1332;-48
2021/01/07 10:50:28;;;;;;;;;;;;;;;24.47;38.50;100396.72;5083493;28;1140;-48
2021/01/07 10:52:53;;;;;;;;;;;;;;;24.46;38.46;100384.34;5089915;28;1890;-48
2021/01/07 10:55:26;;;;;;;;;;;;;;;24.48;38.32;100390.31;5085237;28;998;-49
2021/01/07 10:58:26;;;;;;;;;;;;;;;24.47;38.07;100388.66;5087725;28;1283;-50
2021/01/07 11:01:04;;;;;;;;;;;;;;;24.48;38.24;100384.94;5082931;28;1042;-48
2021/01/07 11:03:48;;;;;;;;;;;;;;;24.49;38.36;100377.75;5086847;28;1194;-48
2021/01/07 11:06:17;;;;;;;;;;;;;;;24.47;38.33;100386.00;5088390;28;1255;-49
2021/01/07 11:08:42;;;;;;;;;;;;;;;24.47;38.33;100380.63;5088546;28;1080;-48
2021/01/07 11:11:09;;;;;;;;;;;;;;;24.47;38.25;100372.59;5085422;28;1949;-50
2021/01/07 11:13:39;;;;;;;;;;;;;;;24.47;38.26;100369.91;5086452;28;1054;-48
2021/01/07 11:16:05;;;;;;;;;;;;;;;24.48;38.14;100368.06;5081964;28;1352;-48
2021/01/07 11:18:33;;;;;;;;;;;;;;;24.47;38.31;100369.91;5089357;28;1204;-50
2021/01/07 11:20:59;;;;;;;;;;;;;;;24.46;38.29;100362.91;5087560;28;1145;-48
2021/01/07 11:23:26;;;;;;;;;;;;;;;24.47;38.60;100359.19;5083459;28;1243;-48
2021/01/07 11:25:51;;;;;;;;;;;;;;;24.49;38.33;100358.97;5085115;28;1369;-46
2021/01/07 11:28:17;;;;;;;;;;;;;;;24.47;38.56;100355.72;5089105;28;1085;-49
2021/01/07 11:30:42;;;;;;;;;;;;;;;24.48;38.31;100350.09;5088751;28;1910;-51
2021/01/07 11:33:07;;;;;;;;;;;;;;;24.49;38.30;100345.59;5084291;28;1097;-47
2021/01/07 11:35:33;;;;;;;;;;;;;;;24.47;38.36;100351.16;5083754;28;1054;-49
2021/01/07 11:38:03;;;;;;;;;;;;;;;24.47;38.28;100347.66;5083635;28;1197;-48
2021/01/07 11:40:47;;;;;;;;;;;;;;;24.47;38.49;100350.34;5076479;28;1114;-51
2021/01/07 11:43:12;;;;;;;;;;;;;;;24.48;38.18;100342.06;5086862;28;1005;-48
2021/01/07 11:45:39;;;;;;;;;;;;;;;24.47;38.24;100336.94;5086192;28;1034;-50
2021/01/07 11:48:07;;;;;;;;;;;;;;;24.46;38.27;100336.13;5086415;28;1170;-50
2021/01/07 11:50:37;;;;;;;;;;;;;;;24.48;38.34;100326.00;5087849;28;1318;-48
2021/01/07 11:53:03;;;;;;;;;;;;;;;24.45;38.31;100326.44;5093616;28;1893;-50
2021/01/07 11:55:28;;;;;;;;;;;;;;;24.46;38.45;100327.28;5086979;28;1025;-48
2021/01/07 11:57:54;;;;;;;;;;;;;;;24.45;38.40;100318.41;5091151;28;1284;-48
2021/01/07 12:00:20;;;;;;;;;;;;;;;24.47;38.51;100313.63;5087506;28;1109;-48
2021/01/07 12:02:47;;;;;;;;;;;;;;;24.46;38.37;100309.31;5091316;28;1138;-47
2021/01/07 12:05:13;;;;;;;;;;;;;;;24.47;38.38;100307.47;5092958;28;1160;-49
2021/01/07 12:07:42;;;;;;;;;;;;;;;24.44;38.44;100304.22;5089762;28;1298;-48
2021/01/07 12:10:08;;;;;;;;;;;;;;;24.43;38.51;100305.25;5086924;28;1089;-50
2021/01/07 12:12:41;;;;;;;;;;;;;;;24.46;38.35;100298.59;5074218;28;1945;-50
2021/01/07 12:15:08;;;;;;;;;;;;;;;24.46;38.14;100303.16;5085626;28;1046;-50
2021/01/07 12:17:36;;;;;;;;;;;;;;;24.47;38.22;100310.97;5083131;28;1315;-49
2021/01/07 12:20:01;;;;;;;;;;;;;;;24.47;38.18;100302.91;5089050;28;1042;-48
2021/01/07 12:22:26;;;;;;;;;;;;;;;24.47;38.15;100294.09;5085616;28;1372;-48
2021/01/07 12:24:52;;;;;;;;;;;;;;;24.46;38.44;100301.28;5093198;28;1068;-49
2021/01/07 12:27:18;;;;;;;;;;;;;;;24.46;38.62;100292.44;5089124;28;1294;-50
2021/01/07 12:29:45;;;;;;;;;;;;;;;24.46;38.41;100295.94;5090199;28;1022;-53
2021/01/07 12:32:19;;;;;;;;;;;;;;;24.45;38.47;100291.63;5086485;28;1969;-49
2021/01/07 12:34:53;;;;;;;;;;;;;;;24.47;37.96;100284.16;5088389;28;1050;-48
2021/01/07 12:37:19;;;;;;;;;;;;;;;24.46;38.52;100289.75;5080826;28;1284;-48
2021/01/07 12:40:05;;;;;;;;;;;;;;;24.43;38.57;100288.34;5077266;28;1069;-49
2021/01/07 12:42:40;;;;;;;;;;;;;;;24.44;38.26;100285.44;5088929;28;1054;-48
2021/01/07 12:45:06;;;;;;;;;;;;;;;24.44;38.34;100279.25;5091066;28;1117;-49
2021/01/07 12:47:31;;;;;;;;;;;;;;;24.43;38.52;100278.47;5093551;28;1215;-48